sensor_id;sensor_type;location;lat;lon;timestamp;pressure;altitude;pressure_sealevel;temperature;humidity
25722;BME280;13578;53.450;15.496;2023-01-28T00:00:55;100803.22;;;-0.09;100.00
25722;BME280;13578;53.450;15.496;2023-01-28T00:03:56;100796.84;;;-0.06;100.00
25722;BME280;13578;53.450;15.496;2023-01-28T00:06:56;100781.56;;;-0.07;100.00
25722;BME280;13578;53.450;15.496;2023-01-28T00:09:57;100793.34;;;-0.10;100.00
25722;BME280;13578;53.450;15.496;2023-01-28T00:12:57;100796.09;;;-0.11;100.00
25722;BME280;13578;53.450;15.496;2023-01-28T00:16:00;100802.22;;;-0.06;100.00
25722;BME280;13578;53.450;15.496;2023-01-28T00:19:02;100794.00;;;-0.02;100.00
25722;BME280;13578;53.450;15.496;2023-01-28T00:22:03;100789.72;;;-0.09;100.00
25722;BME280;13578;53.450;15.496;2023-01-28T00:25:03;100792.53;;;-0.12;100.00
25722;BME280;13578;53.450;15.496;2023-01-28T00:28:04;100792.84;;;0.07;100.00
25722;BME280;13578;53.450;15.496;2023-01-28T00:31:18;100796.38;;;0.09;100.00
25722;BME280;13578;53.450;15.496;2023-01-28T00:34:19;100800.00;;;0.08;100.00
25722;BME280;13578;53.450;15.496;2023-01-28T00:37:20;100790.97;;;0.09;100.00
25722;BME280;13578;53.450;15.496;2023-01-28T00:40:20;100796.69;;;0.00;100.00
25722;BME280;13578;53.450;15.496;2023-01-28T00:43:21;100795.59;;;0.06;100.00
25722;BME280;13578;53.450;15.496;2023-01-28T00:46:22;100783.84;;;0.07;100.00
25722;BME280;13578;53.450;15.496;2023-01-28T00:49:24;100805.72;;;-0.03;100.00
25722;BME280;13578;53.450;15.496;2023-01-28T00:52:25;100799.41;;;-0.02;100.00
25722;BME280;13578;53.450;15.496;2023-01-28T00:55:26;100793.97;;;0.00;100.00
25722;BME280;13578;53.450;15.496;2023-01-28T00:58:27;100794.72;;;0.05;100.00
25722;BME280;13578;53.450;15.496;2023-01-28T01:01:28;100805.72;;;-0.03;100.00
25722;BME280;13578;53.450;15.496;2023-01-28T01:04:28;100808.28;;;0.02;100.00
25722;BME280;13578;53.450;15.496;2023-01-28T01:07:34;100803.81;;;0.01;100.00
25722;BME280;13578;53.450;15.496;2023-01-28T01:10:40;100792.09;;;0.02;100.00
25722;BME280;13578;53.450;15.496;2023-01-28T01:13:41;100798.28;;;0.06;100.00
25722;BME280;13578;53.450;15.496;2023-01-28T01:16:42;100801.03;;;0.04;100.00
25722;BME280;13578;53.450;15.496;2023-01-28T01:19:42;100797.50;;;0.02;100.00
25722;BME280;13578;53.450;15.496;2023-01-28T01:22:43;100802.81;;;0.05;100.00
25722;BME280;13578;53.450;15.496;2023-01-28T01:25:43;100800.19;;;0.02;100.00
25722;BME280;13578;53.450;15.496;2023-01-28T01:28:44;100805.50;;;0.05;100.00
25722;BME280;13578;53.450;15.496;2023-01-28T01:31:45;100805.69;;;-0.01;100.00
25722;BME280;13578;53.450;15.496;2023-01-28T01:34:46;100803.53;;;0.10;100.00
25722;BME280;13578;53.450;15.496;2023-01-28T01:37:46;100804.66;;;0.03;100.00
25722;BME280;13578;53.450;15.496;2023-01-28T01:40:47;100804.59;;;0.05;100.00
25722;BME280;13578;53.450;15.496;2023-01-28T01:43:54;100810.19;;;-0.02;100.00
25722;BME280;13578;53.450;15.496;2023-01-28T01:46:55;100803.28;;;-0.10;100.00
25722;BME280;13578;53.450;15.496;2023-01-28T01:49:56;100812.94;;;-0.03;100.00
25722;BME280;13578;53.450;15.496;2023-01-28T01:53:11;100805.66;;;0.01;100.00
25722;BME280;13578;53.450;15.496;2023-01-28T01:56:15;100792.94;;;0.04;100.00
25722;BME280;13578;53.450;15.496;2023-01-28T01:59:22;100796.47;;;0.06;100.00
25722;BME280;13578;53.450;15.496;2023-01-28T02:02:25;100794.97;;;-0.04;100.00
25722;BME280;13578;53.450;15.496;2023-01-28T02:05:25;100794.59;;;0.08;100.00
25722;BME280;13578;53.450;15.496;2023-01-28T02:08:26;100801.13;;;0.01;100.00
25722;BME280;13578;53.450;15.496;2023-01-28T02:11:29;100803.75;;;0.04;100.00
25722;BME280;13578;53.450;15.496;2023-01-28T02:14:34;100792.84;;;0.07;100.00
25722;BME280;13578;53.450;15.496;2023-01-28T02:17:38;100794.78;;;0.04;100.00
25722;BME280;13578;53.450;15.496;2023-01-28T02:31:17;100780.16;;;0.09;100.00
25722;BME280;13578;53.450;15.496;2023-01-28T02:37:56;100787.63;;;0.01;100.00
25722;BME280;13578;53.450;15.496;2023-01-28T02:41:04;100793.41;;;-0.11;100.00
25722;BME280;13578;53.450;15.496;2023-01-28T02:44:09;100795.97;;;-0.07;100.00
25722;BME280;13578;53.450;15.496;2023-01-28T02:47:13;100798.66;;;-0.07;100.00
25722;BME280;13578;53.450;15.496;2023-01-28T02:51:03;100796.50;;;0.05;100.00
25722;BME280;13578;53.450;15.496;2023-01-28T02:54:11;100786.50;;;0.08;100.00
25722;BME280;13578;53.450;15.496;2023-01-28T02:57:38;100790.31;;;0.01;100.00
25722;BME280;13578;53.450;15.496;2023-01-28T03:00:49;100794.13;;;-0.06;100.00
25722;BME280;13578;53.450;15.496;2023-01-28T03:03:58;100793.06;;;-0.01;100.00
25722;BME280;13578;53.450;15.496;2023-01-28T03:07:01;100794.13;;;-0.05;100.00
25722;BME280;13578;53.450;15.496;2023-01-28T03:10:06;100792.38;;;-0.07;100.00
25722;BME280;13578;53.450;15.496;2023-01-28T03:13:08;100788.78;;;-0.08;100.00
25722;BME280;13578;53.450;15.496;2023-01-28T03:16:28;100797.88;;;-0.10;100.00
25722;BME280;13578;53.450;15.496;2023-01-28T03:19:48;100786.88;;;-0.04;100.00
25722;BME280;13578;53.450;15.496;2023-01-28T03:23:10;100792.53;;;-0.12;100.00
25722;BME280;13578;53.450;15.496;2023-01-28T03:26:37;100794.25;;;-0.09;100.00
25722;BME280;13578;53.450;15.496;2023-01-28T03:30:02;100778.00;;;-0.08;100.00
25722;BME280;13578;53.450;15.496;2023-01-28T03:33:23;100785.38;;;-0.13;100.00
25722;BME280;13578;53.450;15.496;2023-01-28T03:36:44;100790.66;;;-0.10;100.00
25722;BME280;13578;53.450;15.496;2023-01-28T03:39:54;100793.03;;;0.01;100.00
25722;BME280;13578;53.450;15.496;2023-01-28T03:42:57;100786.81;;;-0.03;100.00
25722;BME280;13578;53.450;15.496;2023-01-28T03:46:00;100799.38;;;0.00;100.00
25722;BME280;13578;53.450;15.496;2023-01-28T03:49:01;100788.84;;;-0.09;100.00
25722;BME280;13578;53.450;15.496;2023-01-28T03:52:01;100783.19;;;0.00;100.00
25722;BME280;13578;53.450;15.496;2023-01-28T03:55:02;100777.72;;;0.02;100.00
25722;BME280;13578;53.450;15.496;2023-01-28T03:58:12;100780.56;;;-0.03;100.00
25722;BME280;13578;53.450;15.496;2023-01-28T04:01:14;100783.25;;;-0.03;100.00
25722;BME280;13578;53.450;15.496;2023-01-28T04:04:14;100777.88;;;-0.03;100.00
25722;BME280;13578;53.450;15.496;2023-01-28T04:07:23;100784.09;;;-0.01;100.00
25722;BME280;13578;53.450;15.496;2023-01-28T04:10:24;100788.59;;;0.00;100.00
25722;BME280;13578;53.450;15.496;2023-01-28T04:13:24;100789.59;;;-0.04;100.00
25722;BME280;13578;53.450;15.496;2023-01-28T04:16:25;100780.69;;;-0.08;100.00
25722;BME280;13578;53.450;15.496;2023-01-28T04:19:26;100776.75;;;0.04;100.00
25722;BME280;13578;53.450;15.496;2023-01-28T04:22:27;100783.91;;;0.05;100.00
25722;BME280;13578;53.450;15.496;2023-01-28T04:25:28;100789.50;;;-0.01;100.00
25722;BME280;13578;53.450;15.496;2023-01-28T04:28:29;100784.38;;;-0.10;100.00
25722;BME280;13578;53.450;15.496;2023-01-28T04:31:31;100779.84;;;-0.10;100.00
25722;BME280;13578;53.450;15.496;2023-01-28T04:34:32;100794.13;;;-0.05;100.00
25722;BME280;13578;53.450;15.496;2023-01-28T04:37:32;100789.66;;;-0.07;100.00
25722;BME280;13578;53.450;15.496;2023-01-28T04:40:33;100796.84;;;-0.06;100.00
25722;BME280;13578;53.450;15.496;2023-01-28T04:43:34;100794.13;;;-0.06;100.00
25722;BME280;13578;53.450;15.496;2023-01-28T04:46:34;100780.63;;;-0.06;100.00
25722;BME280;13578;53.450;15.496;2023-01-28T04:49:35;100788.53;;;0.02;100.00
25722;BME280;13578;53.450;15.496;2023-01-28T04:52:35;100787.88;;;-0.07;100.00
25722;BME280;13578;53.450;15.496;2023-01-28T04:55:36;100787.69;;;-0.01;100.00
25722;BME280;13578;53.450;15.496;2023-01-28T04:58:37;100795.97;;;-0.07;100.00
25722;BME280;13578;53.450;15.496;2023-01-28T05:01:37;100797.81;;;-0.09;100.00
25722;BME280;13578;53.450;15.496;2023-01-28T05:04:38;100790.75;;;-0.13;100.00
25722;BME280;13578;53.450;15.496;2023-01-28T05:07:39;100778.13;;;-0.12;100.00
25722;BME280;13578;53.450;15.496;2023-01-28T05:10:39;100781.63;;;-0.09;100.00
25722;BME280;13578;53.450;15.496;2023-01-28T05:13:40;100784.19;;;-0.04;100.00
25722;BME280;13578;53.450;15.496;2023-01-28T05:16:41;100784.97;;;-0.01;100.00
25722;BME280;13578;53.450;15.496;2023-01-28T05:19:41;100794.72;;;0.05;100.00
25722;BME280;13578;53.450;15.496;2023-01-28T05:22:42;100787.63;;;0.01;100.00
25722;BME280;13578;53.450;15.496;2023-01-28T05:25:43;100802.88;;;0.04;100.00
25722;BME280;13578;53.450;15.496;2023-01-28T05:28:45;100775.16;;;-0.03;100.00
25722;BME280;13578;53.450;15.496;2023-01-28T05:31:46;100786.75;;;0.01;100.00
25722;BME280;13578;53.450;15.496;2023-01-28T05:34:47;100787.41;;;0.09;100.00
25722;BME280;13578;53.450;15.496;2023-01-28T05:37:48;100786.16;;;0.21;100.00
25722;BME280;13578;53.450;15.496;2023-01-28T05:40:48;100794.13;;;0.24;100.00
25722;BME280;13578;53.450;15.496;2023-01-28T05:43:49;100791.97;;;0.07;100.00
25722;BME280;13578;53.450;15.496;2023-01-28T05:46:49;100795.69;;;0.03;100.00
25722;BME280;13578;53.450;15.496;2023-01-28T05:49:50;100790.00;;;0.12;100.00
25722;BME280;13578;53.450;15.496;2023-01-28T05:52:51;100782.00;;;0.09;100.00
25722;BME280;13578;53.450;15.496;2023-01-28T05:55:52;100788.41;;;0.05;100.00
25722;BME280;13578;53.450;15.496;2023-01-28T05:58:53;100786.88;;;0.26;100.00
25722;BME280;13578;53.450;15.496;2023-01-28T06:01:53;100789.19;;;0.08;100.00
25722;BME280;13578;53.450;15.496;2023-01-28T06:04:54;100795.84;;;-0.04;100.00
25722;BME280;13578;53.450;15.496;2023-01-28T06:07:55;100790.63;;;-0.08;100.00
25722;BME280;13578;53.450;15.496;2023-01-28T06:10:55;100786.88;;;-0.04;100.00
25722;BME280;13578;53.450;15.496;2023-01-28T06:13:56;100805.97;;;-0.10;100.00
25722;BME280;13578;53.450;15.496;2023-01-28T06:16:56;100794.59;;;-0.22;100.00
25722;BME280;13578;53.450;15.496;2023-01-28T06:19:57;100795.44;;;-0.20;100.00
25722;BME280;13578;53.450;15.496;2023-01-28T06:22:58;100797.13;;;-0.15;100.00
25722;BME280;13578;53.450;15.496;2023-01-28T06:25:58;100790.47;;;-0.04;100.00
25722;BME280;13578;53.450;15.496;2023-01-28T06:28:59;100804.06;;;-0.07;100.00
25722;BME280;13578;53.450;15.496;2023-01-28T06:31:59;100799.66;;;-0.11;100.00
25722;BME280;13578;53.450;15.496;2023-01-28T06:35:00;100799.84;;;-0.15;100.00
25722;BME280;13578;53.450;15.496;2023-01-28T06:38:01;100794.31;;;-0.12;100.00
25722;BME280;13578;53.450;15.496;2023-01-28T06:41:03;100792.47;;;-0.10;100.00
25722;BME280;13578;53.450;15.496;2023-01-28T06:44:04;100803.16;;;-0.07;100.00
25722;BME280;13578;53.450;15.496;2023-01-28T06:47:05;100810.25;;;-0.03;100.00
25722;BME280;13578;53.450;15.496;2023-01-28T06:50:07;100800.19;;;0.02;100.00
25722;BME280;13578;53.450;15.496;2023-01-28T06:53:07;100797.47;;;0.04;100.00
25722;BME280;13578;53.450;15.496;2023-01-28T06:56:08;100802.06;;;0.00;100.00
25722;BME280;13578;53.450;15.496;2023-01-28T06:59:09;100800.97;;;0.06;100.00
25722;BME280;13578;53.450;15.496;2023-01-28T07:02:12;100808.94;;;0.10;100.00
25722;BME280;13578;53.450;15.496;2023-01-28T07:05:13;100807.28;;;0.06;100.00
25722;BME280;13578;53.450;15.496;2023-01-28T07:08:13;100810.47;;;0.19;100.00
25722;BME280;13578;53.450;15.496;2023-01-28T07:11:14;100803.41;;;0.15;100.00
25722;BME280;13578;53.450;15.496;2023-01-28T07:14:15;100808.56;;;0.23;100.00
25722;BME280;13578;53.450;15.496;2023-01-28T07:17:16;100807.03;;;0.14;100.00
25722;BME280;13578;53.450;15.496;2023-01-28T07:20:16;100811.84;;;0.04;100.00
25722;BME280;13578;53.450;15.496;2023-01-28T07:23:17;100825.25;;;0.07;100.00
25722;BME280;13578;53.450;15.496;2023-01-28T07:26:18;100817.88;;;0.12;100.00
25722;BME280;13578;53.450;15.496;2023-01-28T07:29:19;100818.75;;;0.14;100.00
25722;BME280;13578;53.450;15.496;2023-01-28T07:32:19;100821.38;;;0.16;100.00
25722;BME280;13578;53.450;15.496;2023-01-28T07:35:20;100819.56;;;0.17;100.00
25722;BME280;13578;53.450;15.496;2023-01-28T07:38:21;100820.31;;;0.22;100.00
25722;BME280;13578;53.450;15.496;2023-01-28T07:41:22;100829.22;;;0.25;100.00
25722;BME280;13578;53.450;15.496;2023-01-28T07:44:22;100821.91;;;0.29;100.00
25722;BME280;13578;53.450;15.496;2023-01-28T07:47:23;100824.41;;;0.35;100.00
25722;BME280;13578;53.450;15.496;2023-01-28T07:50:24;100827.97;;;0.36;100.00
25722;BME280;13578;53.450;15.496;2023-01-28T07:53:25;100829.47;;;0.44;100.00
25722;BME280;13578;53.450;15.496;2023-01-28T07:56:25;100822.22;;;0.46;100.00
25722;BME280;13578;53.450;15.496;2023-01-28T07:59:28;100824.84;;;0.50;100.00
25722;BME280;13578;53.450;15.496;2023-01-28T08:02:29;100833.09;;;0.45;100.00
25722;BME280;13578;53.450;15.496;2023-01-28T08:05:44;100819.72;;;0.40;100.00
25722;BME280;13578;53.450;15.496;2023-01-28T08:08:48;100821.00;;;0.57;100.00
25722;BME280;13578;53.450;15.496;2023-01-28T08:11:49;100822.59;;;0.64;100.00
25722;BME280;13578;53.450;15.496;2023-01-28T08:14:50;100830.03;;;0.56;100.00
25722;BME280;13578;53.450;15.496;2023-01-28T08:17:53;100825.38;;;0.61;100.00
25722;BME280;13578;53.450;15.496;2023-01-28T08:20:55;100817.38;;;0.58;100.00
25722;BME280;13578;53.450;15.496;2023-01-28T08:23:55;100821.75;;;0.62;100.00
25722;BME280;13578;53.450;15.496;2023-01-28T08:26:56;100829.94;;;0.59;100.00
25722;BME280;13578;53.450;15.496;2023-01-28T08:29:57;100833.38;;;0.64;100.00
25722;BME280;13578;53.450;15.496;2023-01-28T08:32:58;100832.47;;;0.65;100.00
25722;BME280;13578;53.450;15.496;2023-01-28T08:36:02;100831.19;;;0.77;100.00
25722;BME280;13578;53.450;15.496;2023-01-28T08:39:03;100836.59;;;0.75;100.00
25722;BME280;13578;53.450;15.496;2023-01-28T08:42:05;100832.81;;;0.81;100.00
25722;BME280;13578;53.450;15.496;2023-01-28T08:45:07;100835.47;;;0.83;100.00
25722;BME280;13578;53.450;15.496;2023-01-28T08:48:11;100838.16;;;0.83;100.00
25722;BME280;13578;53.450;15.496;2023-01-28T08:51:14;100839.66;;;0.93;100.00
25722;BME280;13578;53.450;15.496;2023-01-28T08:54:14;100849.75;;;0.88;100.00
25722;BME280;13578;53.450;15.496;2023-01-28T08:57:15;100855.31;;;0.82;100.00
25722;BME280;13578;53.450;15.496;2023-01-28T09:00:16;100860.06;;;0.75;100.00
25722;BME280;13578;53.450;15.496;2023-01-28T09:03:17;100871.75;;;0.75;100.00
25722;BME280;13578;53.450;15.496;2023-01-28T09:06:18;100871.44;;;0.85;100.00
25722;BME280;13578;53.450;15.496;2023-01-28T09:09:19;100865.97;;;0.88;100.00
25722;BME280;13578;53.450;15.496;2023-01-28T09:12:19;100862.13;;;0.95;100.00
25722;BME280;13578;53.450;15.496;2023-01-28T09:15:20;100868.41;;;0.95;100.00
25722;BME280;13578;53.450;15.496;2023-01-28T09:18:21;100860.13;;;1.00;100.00
25722;BME280;13578;53.450;15.496;2023-01-28T09:21:21;100883.03;;;1.17;100.00
25722;BME280;13578;53.450;15.496;2023-01-28T09:24:22;100869.28;;;1.23;100.00
25722;BME280;13578;53.450;15.496;2023-01-28T09:27:23;100864.91;;;1.19;100.00
25722;BME280;13578;53.450;15.496;2023-01-28T09:30:24;100869.59;;;1.14;100.00
25722;BME280;13578;53.450;15.496;2023-01-28T09:33:24;100883.03;;;1.17;100.00
25722;BME280;13578;53.450;15.496;2023-01-28T09:36:25;100880.25;;;1.18;100.00
25722;BME280;13578;53.450;15.496;2023-01-28T09:39:26;100883.69;;;1.23;100.00
25722;BME280;13578;53.450;15.496;2023-01-28T09:46:10;100888.38;;;1.18;100.00
25722;BME280;13578;53.450;15.496;2023-01-28T09:49:25;100882.66;;;1.27;100.00
25722;BME280;13578;53.450;15.496;2023-01-28T09:52:30;100879.34;;;1.19;100.00
25722;BME280;13578;53.450;15.496;2023-01-28T09:55:40;100882.59;;;1.29;100.00
25722;BME280;13578;53.450;15.496;2023-01-28T09:58:43;100885.41;;;1.26;100.00
25722;BME280;13578;53.450;15.496;2023-01-28T10:02:01;100889.22;;;1.20;100.00
25722;BME280;13578;53.450;15.496;2023-01-28T10:05:13;100884.81;;;1.16;100.00
25722;BME280;13578;53.450;15.496;2023-01-28T10:11:59;100888.31;;;1.20;100.00
25722;BME280;13578;53.450;15.496;2023-01-28T10:18:44;100889.38;;;1.16;100.00
25722;BME280;13578;53.450;15.496;2023-01-28T10:22:03;100876.47;;;1.24;100.00
25722;BME280;13578;53.450;15.496;2023-01-28T10:25:13;100874.91;;;1.17;100.00
25722;BME280;13578;53.450;15.496;2023-01-28T10:28:23;100885.47;;;1.24;100.00
25722;BME280;13578;53.450;15.496;2023-01-28T10:31:30;100884.69;;;1.21;100.00
25722;BME280;13578;53.450;15.496;2023-01-28T10:34:31;100879.28;;;1.21;100.00
25722;BME280;13578;53.450;15.496;2023-01-28T10:37:36;100868.28;;;1.25;100.00
25722;BME280;13578;53.450;15.496;2023-01-28T10:40:42;100876.28;;;1.29;100.00
25722;BME280;13578;53.450;15.496;2023-01-28T10:43:44;100862.44;;;1.38;100.00
25722;BME280;13578;53.450;15.496;2023-01-28T10:46:47;100863.50;;;1.34;100.00
25722;BME280;13578;53.450;15.496;2023-01-28T10:49:53;100870.88;;;1.29;100.00
25722;BME280;13578;53.450;15.496;2023-01-28T10:52:56;100870.31;;;1.19;100.00
25722;BME280;13578;53.450;15.496;2023-01-28T10:55:59;100864.81;;;1.22;100.00
25722;BME280;13578;53.450;15.496;2023-01-28T10:59:16;100854.00;;;1.22;100.00
25722;BME280;13578;53.450;15.496;2023-01-28T11:02:28;100851.06;;;1.28;100.00
25722;BME280;13578;53.450;15.496;2023-01-28T11:05:31;100847.53;;;1.26;100.00
25722;BME280;13578;53.450;15.496;2023-01-28T11:08:42;100849.22;;;1.30;100.00
25722;BME280;13578;53.450;15.496;2023-01-28T11:11:43;100846.38;;;1.33;100.00
25722;BME280;13578;53.450;15.496;2023-01-28T11:14:55;100820.28;;;1.32;100.00
25722;BME280;13578;53.450;15.496;2023-01-28T11:18:04;100813.13;;;1.31;100.00
25722;BME280;13578;53.450;15.496;2023-01-28T11:21:15;100807.91;;;1.25;100.00
25722;BME280;13578;53.450;15.496;2023-01-28T11:24:21;100829.59;;;1.23;100.00
25722;BME280;13578;53.450;15.496;2023-01-28T11:27:28;100805.19;;;1.25;100.00
25722;BME280;13578;53.450;15.496;2023-01-28T11:30:39;100810.19;;;1.37;100.00
25722;BME280;13578;53.450;15.496;2023-01-28T11:33:54;100796.66;;;1.37;100.00
25722;BME280;13578;53.450;15.496;2023-01-28T11:37:09;100811.19;;;1.35;100.00
25722;BME280;13578;53.450;15.496;2023-01-28T11:40:18;100796.50;;;1.42;100.00
25722;BME280;13578;53.450;15.496;2023-01-28T11:43:24;100805.72;;;1.36;100.00
25722;BME280;13578;53.450;15.496;2023-01-28T11:46:50;100808.19;;;1.42;100.00
25722;BME280;13578;53.450;15.496;2023-01-28T11:49:56;100788.63;;;1.34;100.00
25722;BME280;13578;53.450;15.496;2023-01-28T12:13:05;100804.84;;;1.36;100.00
25722;BME280;13578;53.450;15.496;2023-01-28T12:16:21;100786.09;;;1.30;100.00
25722;BME280;13578;53.450;15.496;2023-01-28T12:29:37;100774.34;;;1.31;100.00
25722;BME280;13578;53.450;15.496;2023-01-28T12:33:06;100782.22;;;1.37;100.00
25722;BME280;13578;53.450;15.496;2023-01-28T12:43:02;100773.03;;;1.42;100.00
25722;BME280;13578;53.450;15.496;2023-01-28T12:49:34;100736.06;;;1.41;100.00
25722;BME280;13578;53.450;15.496;2023-01-28T12:52:43;100748.50;;;1.47;100.00
25722;BME280;13578;53.450;15.496;2023-01-28T12:55:50;100752.34;;;1.65;100.00
25722;BME280;13578;53.450;15.496;2023-01-28T13:05:19;100735.16;;;1.66;100.00
25722;BME280;13578;53.450;15.496;2023-01-28T13:08:26;100741.91;;;1.54;100.00
25722;BME280;13578;53.450;15.496;2023-01-28T13:11:29;100735.22;;;1.65;100.00
25722;BME280;13578;53.450;15.496;2023-01-28T13:14:32;100724.28;;;1.68;100.00
25722;BME280;13578;53.450;15.496;2023-01-28T13:17:33;100729.91;;;1.62;100.00
25722;BME280;13578;53.450;15.496;2023-01-28T13:23:47;100723.84;;;1.55;100.00
25722;BME280;13578;53.450;15.496;2023-01-28T13:26:54;100732.44;;;1.42;100.00
25722;BME280;13578;53.450;15.496;2023-01-28T13:30:23;100739.16;;;1.32;100.00
25722;BME280;13578;53.450;15.496;2023-01-28T13:33:28;100719.97;;;1.38;100.00
25722;BME280;13578;53.450;15.496;2023-01-28T13:36:33;100731.13;;;1.29;100.00
25722;BME280;13578;53.450;15.496;2023-01-28T13:39:36;100724.03;;;1.25;100.00
25722;BME280;13578;53.450;15.496;2023-01-28T13:42:37;100718.97;;;1.41;100.00
25722;BME280;13578;53.450;15.496;2023-01-28T13:45:40;100736.75;;;1.23;100.00
25722;BME280;13578;53.450;15.496;2023-01-28T13:48:48;100747.91;;;1.14;100.00
25722;BME280;13578;53.450;15.496;2023-01-28T13:52:36;100727.03;;;1.17;100.00
25722;BME280;13578;53.450;15.496;2023-01-28T13:55:43;100735.09;;;1.19;100.00
25722;BME280;13578;53.450;15.496;2023-01-28T13:59:02;100743.81;;;1.02;100.00
25722;BME280;13578;53.450;15.496;2023-01-28T14:05:30;100729.06;;;1.10;100.00
25722;BME280;13578;53.450;15.496;2023-01-28T14:12:11;100733.69;;;1.08;100.00
25722;BME280;13578;53.450;15.496;2023-01-28T14:18:47;100714.38;;;0.94;100.00
25722;BME280;13578;53.450;15.496;2023-01-28T14:21:48;100713.38;;;0.97;100.00
25722;BME280;13578;53.450;15.496;2023-01-28T14:24:50;100710.88;;;0.90;100.00
25722;BME280;13578;53.450;15.496;2023-01-28T14:27:52;100727.25;;;0.86;100.00
25722;BME280;13578;53.450;15.496;2023-01-28T14:31:00;100743.97;;;0.97;100.00
25722;BME280;13578;53.450;15.496;2023-01-28T14:34:14;100754.91;;;0.94;100.00
25722;BME280;13578;53.450;15.496;2023-01-28T14:37:20;100744.09;;;0.94;100.00
25722;BME280;13578;53.450;15.496;2023-01-28T14:40:22;100739.69;;;0.91;100.00
25722;BME280;13578;53.450;15.496;2023-01-28T14:43:26;100747.97;;;0.87;100.00
25722;BME280;13578;53.450;15.496;2023-01-28T14:56:30;100744.34;;;0.86;100.00
25722;BME280;13578;53.450;15.496;2023-01-28T14:59:42;100741.16;;;0.75;100.00
25722;BME280;13578;53.450;15.496;2023-01-28T15:02:44;100745.63;;;0.76;100.00
25722;BME280;13578;53.450;15.496;2023-01-28T15:05:44;100749.19;;;0.76;100.00
25722;BME280;13578;53.450;15.496;2023-01-28T15:08:46;100751.84;;;0.78;100.00
25722;BME280;13578;53.450;15.496;2023-01-28T15:11:50;100747.56;;;0.72;100.00
25722;BME280;13578;53.450;15.496;2023-01-28T15:14:51;100744.09;;;0.67;100.00
25722;BME280;13578;53.450;15.496;2023-01-28T15:17:52;100754.91;;;0.67;100.00
25722;BME280;13578;53.450;15.496;2023-01-28T15:20:54;100746.00;;;0.65;100.00
25722;BME280;13578;53.450;15.496;2023-01-28T15:24:01;100732.00;;;0.52;100.00
25722;BME280;13578;53.450;15.496;2023-01-28T15:27:03;100733.28;;;0.40;100.00
25722;BME280;13578;53.450;15.496;2023-01-28T15:30:19;100745.88;;;0.41;100.00
25722;BME280;13578;53.450;15.496;2023-01-28T15:33:21;100743.38;;;0.35;100.00
25722;BME280;13578;53.450;15.496;2023-01-28T15:36:22;100745.81;;;0.43;100.00
25722;BME280;13578;53.450;15.496;2023-01-28T15:39:25;100761.34;;;0.36;100.00
25722;BME280;13578;53.450;15.496;2023-01-28T15:42:26;100758.78;;;0.31;100.00
25722;BME280;13578;53.450;15.496;2023-01-28T15:45:28;100762.38;;;0.32;100.00
25722;BME280;13578;53.450;15.496;2023-01-28T15:48:33;100770.88;;;0.20;100.00
25722;BME280;13578;53.450;15.496;2023-01-28T15:51:34;100783.13;;;0.30;100.00
25722;BME280;13578;53.450;15.496;2023-01-28T15:54:40;100778.69;;;0.29;100.00
25722;BME280;13578;53.450;15.496;2023-01-28T15:57:42;100786.53;;;0.37;100.00
25722;BME280;13578;53.450;15.496;2023-01-28T16:00:42;100800.44;;;0.24;100.00
25722;BME280;13578;53.450;15.496;2023-01-28T16:03:45;100796.69;;;0.28;100.00
25722;BME280;13578;53.450;15.496;2023-01-28T16:06:46;100784.44;;;0.17;100.00
25722;BME280;13578;53.450;15.496;2023-01-28T16:09:53;100796.00;;;0.22;100.00
25722;BME280;13578;53.450;15.496;2023-01-28T16:13:03;100786.94;;;0.23;100.00
25722;BME280;13578;53.450;15.496;2023-01-28T16:16:05;100774.56;;;0.17;100.00
25722;BME280;13578;53.450;15.496;2023-01-28T16:19:06;100753.50;;;0.00;100.00
25722;BME280;13578;53.450;15.496;2023-01-28T16:22:15;100752.84;;;-0.08;100.00
25722;BME280;13578;53.450;15.496;2023-01-28T16:25:25;100763.31;;;0.03;100.00
25722;BME280;13578;53.450;15.496;2023-01-28T16:28:26;100758.88;;;0.00;100.00
25722;BME280;13578;53.450;15.496;2023-01-28T16:31:28;100768.72;;;0.01;100.00
25722;BME280;13578;53.450;15.496;2023-01-28T16:34:29;100777.78;;;0.00;100.00
25722;BME280;13578;53.450;15.496;2023-01-28T16:37:29;100766.88;;;0.03;100.00
25722;BME280;13578;53.450;15.496;2023-01-28T16:40:30;100765.16;;;0.01;100.00
25722;BME280;13578;53.450;15.496;2023-01-28T16:43:31;100771.56;;;-0.04;100.00
25722;BME280;13578;53.450;15.496;2023-01-28T16:46:32;100777.13;;;-0.08;100.00
25722;BME280;13578;53.450;15.496;2023-01-28T16:49:32;100776.09;;;-0.04;100.00
25722;BME280;13578;53.450;15.496;2023-01-28T16:52:33;100773.41;;;-0.04;100.00
25722;BME280;13578;53.450;15.496;2023-01-28T16:55:33;100779.84;;;-0.08;100.00
25722;BME280;13578;53.450;15.496;2023-01-28T16:58:34;100775.44;;;-0.12;100.00
25722;BME280;13578;53.450;15.496;2023-01-28T17:01:35;100768.13;;;-0.09;100.00
25722;BME280;13578;53.450;15.496;2023-01-28T17:04:36;100783.84;;;-0.23;100.00
25722;BME280;13578;53.450;15.496;2023-01-28T17:07:36;100785.88;;;-0.32;100.00
25722;BME280;13578;53.450;15.496;2023-01-28T17:10:37;100785.94;;;-0.33;100.00
25722;BME280;13578;53.450;15.496;2023-01-28T17:13:38;100788.72;;;-0.36;100.00
25722;BME280;13578;53.450;15.496;2023-01-28T17:16:39;100793.47;;;-0.44;100.00
25722;BME280;13578;53.450;15.496;2023-01-28T17:19:40;100803.41;;;-0.46;100.00
25722;BME280;13578;53.450;15.496;2023-01-28T17:22:40;100795.88;;;-0.35;100.00